Time;durP1;ratioP1;P1;durP2;ratioP2;P2;SDS_P1;SDS_P2;PMS_P1;PMS_P2;Temp;Humidity;BMP_temperature;BMP_pressure;BME280_temperature;BME280_humidity;BME280_pressure;Samples;Min_cycle;Max_cycle;Signal;HPM_P1;HPM_P2
2022/04/08 00:00:52;;;;;;;;;;;;;;;13.86;59.95;97843.66;4413740;32;20143;-89
2022/04/08 00:03:17;;;;;;;;;;;;;;;13.90;59.96;97850.31;4426766;32;20033;-89
2022/04/08 00:05:43;;;;;;;;;;;;;;;13.66;59.94;97857.38;4426113;32;28189;-87
2022/04/08 00:08:08;;;;;;;;;;;;;;;13.72;59.96;97863.00;4440503;32;19989;-90
2022/04/08 00:10:34;;;;;;;;;;;;;;;13.73;59.95;97874.31;4426815;32;20008;-90
2022/04/08 00:12:59;;;;;;;;;;;;;;;13.61;59.94;97857.72;4413734;32;19998;-88
2022/04/08 00:15:24;;;;;;;;;;;;;;;13.51;59.94;97873.28;4426565;32;19978;-88
2022/04/08 00:17:49;;;;;;;;;;;;;;;13.28;59.93;97871.50;4426600;32;19973;-90
2022/04/08 00:20:15;;;;;;;;;;;;;;;13.25;59.92;97871.75;4426599;32;20027;-89
2022/04/08 00:22:40;;;;;;;;;;;;;;;13.37;59.94;97872.59;4426502;32;19977;-89
2022/04/08 00:25:06;;;;;;;;;;;;;;;13.35;59.93;97859.66;4426558;32;19989;-88
2022/04/08 00:27:31;;;;;;;;;;;;;;;13.31;59.93;97870.44;4439247;32;20311;-89
2022/04/08 00:29:57;;;;;;;;;;;;;;;13.13;59.92;97856.91;4426368;32;19990;-88
2022/04/08 00:32:23;;;;;;;;;;;;;;;13.26;59.92;97862.13;4413172;32;23368;-88
2022/04/08 00:34:49;;;;;;;;;;;;;;;13.04;59.91;97866.25;4426513;32;19977;-88
2022/04/08 00:37:14;;;;;;;;;;;;;;;13.02;59.91;97881.19;4426188;32;20310;-89
2022/04/08 00:39:39;;;;;;;;;;;;;;;13.03;59.92;97887.25;4426521;32;19997;-89
2022/04/08 00:42:06;;;;;;;;;;;;;;;12.98;59.91;97879.72;4426695;32;20000;-89
2022/04/08 00:44:31;;;;;;;;;;;;;;;12.96;59.91;97873.78;4426530;32;19977;-88
2022/04/08 00:46:56;;;;;;;;;;;;;;;13.09;59.91;97868.53;4426598;32;19988;-87
2022/04/08 00:49:22;;;;;;;;;;;;;;;13.08;59.91;97859.84;4425892;32;24616;-88
2022/04/08 00:51:47;;;;;;;;;;;;;;;13.12;59.92;97874.34;4439996;32;25989;-88
2022/04/08 00:54:12;;;;;;;;;;;;;;;13.29;59.93;97885.41;4426335;32;19977;-88
2022/04/08 00:56:37;;;;;;;;;;;;;;;13.22;59.92;97890.22;4413741;32;20367;-88
2022/04/08 00:59:03;;;;;;;;;;;;;;;12.96;59.91;97886.00;4426495;32;20020;-88
2022/04/08 01:01:28;;;;;;;;;;;;;;;12.89;59.91;97878.62;4426527;32;19985;-88
2022/04/08 01:03:54;;;;;;;;;;;;;;;12.93;59.90;97868.78;4426466;32;19993;-88
2022/04/08 01:06:19;;;;;;;;;;;;;;;13.04;59.92;97881.91;4440220;32;20018;-89
2022/04/08 01:08:45;;;;;;;;;;;;;;;12.75;59.90;97878.75;4440449;32;20274;-88
2022/04/08 01:11:10;;;;;;;;;;;;;;;12.62;59.89;97879.72;4426407;32;20000;-88
2022/04/08 01:13:35;;;;;;;;;;;;;;;12.66;59.89;97899.44;4413379;32;20321;-89
2022/04/08 01:16:00;;;;;;;;;;;;;;;12.60;59.89;97895.50;4426384;32;19965;-88
2022/04/08 01:18:26;;;;;;;;;;;;;;;12.62;59.89;97898.84;4425818;32;26563;-89
2022/04/08 01:20:51;;;;;;;;;;;;;;;12.30;59.88;97893.22;4440352;32;19993;-89
2022/04/08 01:23:19;;;;;;;;;;;;;;;12.37;59.88;97899.69;4413376;32;20345;-89
2022/04/08 01:25:44;;;;;;;;;;;;;;;12.41;59.87;97910.75;4426679;32;19965;-88
2022/04/08 01:28:09;;;;;;;;;;;;;;;12.06;59.86;97908.75;4425592;32;24602;-88
2022/04/08 01:30:35;;;;;;;;;;;;;;;12.15;59.86;97915.97;4413441;32;19997;-89
2022/04/08 01:33:00;;;;;;;;;;;;;;;12.02;59.85;97922.09;4413344;32;19977;-88
2022/04/08 01:35:25;;;;;;;;;;;;;;;12.21;59.87;97919.94;4413326;32;20052;-89
2022/04/08 01:37:51;;;;;;;;;;;;;;;12.13;59.86;97940.50;4440094;32;19981;-88
2022/04/08 01:40:17;;;;;;;;;;;;;;;12.23;59.87;97947.59;4425729;32;20353;-89
2022/04/08 01:42:42;;;;;;;;;;;;;;;12.35;59.88;97956.38;4413489;32;19985;-89
2022/04/08 01:45:08;;;;;;;;;;;;;;;12.34;59.87;97964.31;4426085;32;19992;-89
2022/04/08 01:47:33;;;;;;;;;;;;;;;12.40;59.87;97962.09;4426203;32;20365;-88
2022/04/08 01:49:58;;;;;;;;;;;;;;;12.41;59.87;97965.56;4425295;32;19981;-89
2022/04/08 01:52:23;;;;;;;;;;;;;;;12.24;59.87;97982.31;4426107;32;19994;-90
2022/04/08 01:54:49;;;;;;;;;;;;;;;12.40;59.88;97976.94;4426060;32;19973;-90
2022/04/08 01:57:16;;;;;;;;;;;;;;;12.56;59.88;97970.56;4426058;32;20307;-90
2022/04/08 01:59:41;;;;;;;;;;;;;;;12.40;59.87;97975.16;4426533;32;20330;-90
2022/04/08 02:02:06;;;;;;;;;;;;;;;12.35;59.87;97971.19;4426314;32;20000;-92
2022/04/08 02:04:32;;;;;;;;;;;;;;;12.47;59.88;97976.41;4426385;32;19978;-91
2022/04/08 02:06:58;;;;;;;;;;;;;;;12.28;59.86;97970.75;4425554;32;19985;-91
2022/04/08 02:09:23;;;;;;;;;;;;;;;12.29;59.88;97982.84;4426448;32;19993;-92
2022/04/08 02:11:48;;;;;;;;;;;;;;;12.25;59.86;98004.87;4425982;32;19985;-93
2022/04/08 02:14:13;;;;;;;;;;;;;;;12.45;59.88;98012.19;4426238;32;19989;-91
2022/04/08 02:16:39;;;;;;;;;;;;;;;12.33;59.87;98015.66;4426272;32;20003;-90
2022/04/08 02:19:04;;;;;;;;;;;;;;;12.24;59.87;98029.28;4426052;32;19990;-91
2022/04/08 02:21:30;;;;;;;;;;;;;;;12.44;59.88;98028.81;4426060;32;20011;-89
2022/04/08 02:23:55;;;;;;;;;;;;;;;12.15;59.86;98022.06;4413171;32;19977;-90
2022/04/08 02:26:20;;;;;;;;;;;;;;;12.22;59.87;98015.50;4425764;32;19985;-88
2022/04/08 02:28:46;;;;;;;;;;;;;;;12.00;59.85;98008.25;4426051;32;20040;-89
2022/04/08 02:31:11;;;;;;;;;;;;;;;12.24;59.87;97982.31;4425889;32;20258;-90
2022/04/08 02:33:36;;;;;;;;;;;;;;;12.34;59.87;97977.34;4413004;32;20318;-90
2022/04/08 02:36:01;;;;;;;;;;;;;;;12.24;59.87;97992.75;4425597;32;20017;-89
2022/04/08 02:38:27;;;;;;;;;;;;;;;12.20;59.86;97999.13;4425784;32;20030;-89
2022/04/08 02:40:52;;;;;;;;;;;;;;;12.20;59.86;98004.34;4425654;32;20044;-88
2022/04/08 02:43:17;;;;;;;;;;;;;;;11.95;59.85;98021.59;4425632;32;19978;-90
2022/04/08 02:45:42;;;;;;;;;;;;;;;11.99;59.86;98020.47;4426049;32;19978;-91
2022/04/08 02:48:08;;;;;;;;;;;;;;;12.06;59.86;98022.66;4425848;32;20035;-92
2022/04/08 02:50:33;;;;;;;;;;;;;;;11.94;59.85;98034.75;4425837;32;20039;-90
2022/04/08 02:52:58;;;;;;;;;;;;;;;11.84;59.85;98037.13;4412939;32;20029;-91
2022/04/08 02:55:24;;;;;;;;;;;;;;;11.73;59.84;98041.31;4425986;32;20001;-90
2022/04/08 02:57:50;;;;;;;;;;;;;;;11.82;59.84;98057.22;4425914;32;19994;-92
2022/04/08 03:00:16;;;;;;;;;;;;;;;11.75;59.84;98066.34;4426094;32;19992;-91
2022/04/08 03:02:42;;;;;;;;;;;;;;;11.84;59.85;98078.84;4426207;32;20033;-92
2022/04/08 03:05:07;;;;;;;;;;;;;;;11.89;59.84;98094.19;4413621;32;20311;-91
2022/04/08 03:07:33;;;;;;;;;;;;;;;11.99;59.86;98084.81;4412945;32;20005;-91
2022/04/08 03:09:58;;;;;;;;;;;;;;;12.06;59.86;98085.25;4425449;32;19996;-90
2022/04/08 03:12:23;;;;;;;;;;;;;;;12.05;59.86;98094.84;4425676;32;19985;-91
2022/04/08 03:14:48;;;;;;;;;;;;;;;12.21;59.87;98099.91;4425293;32;20015;-90
2022/04/08 03:17:14;;;;;;;;;;;;;;;12.48;59.88;98092.91;4424226;32;20284;-90
2022/04/08 03:19:39;;;;;;;;;;;;;;;12.26;59.86;98092.62;4425390;32;19993;-90
2022/04/08 03:22:06;;;;;;;;;;;;;;;12.52;59.88;98091.75;4425348;32;19977;-90
2022/04/08 03:24:31;;;;;;;;;;;;;;;12.71;59.89;98095.75;4426068;32;19962;-92
2022/04/08 03:26:56;;;;;;;;;;;;;;;12.77;59.89;98098.78;4426269;32;20029;-91
2022/04/08 03:29:22;;;;;;;;;;;;;;;12.81;59.90;98105.50;4426796;32;20009;-93
2022/04/08 03:31:47;;;;;;;;;;;;;;;12.79;59.89;98106.53;4426059;32;19973;-93
2022/04/08 03:34:12;;;;;;;;;;;;;;;12.98;59.91;98116.56;4426378;32;20012;-92
2022/04/08 03:36:46;;;;;;;;;;;;;;;13.12;59.92;98108.63;4429206;32;19988;-93
2022/04/08 03:39:13;;;;;;;;;;;;;;;13.16;59.91;98121.38;4413241;32;19977;-90
2022/04/08 03:41:46;;;;;;;;;;;;;;;13.21;59.92;98132.38;4413130;32;20027;-91
2022/04/08 03:44:11;;;;;;;;;;;;;;;13.12;59.92;98140.81;4425856;32;19986;-90
2022/04/08 03:46:36;;;;;;;;;;;;;;;13.16;59.91;98146.66;4425208;32;20027;-93
2022/04/08 03:49:11;;;;;;;;;;;;;;;13.21;59.92;98149.81;4412724;32;19973;-91
2022/04/08 03:51:36;;;;;;;;;;;;;;;13.20;59.92;98162.06;4425953;32;20500;-89
2022/04/08 03:54:02;;;;;;;;;;;;;;;13.04;59.91;98166.63;4438759;32;19986;-90
2022/04/08 03:56:27;;;;;;;;;;;;;;;13.26;59.93;98168.66;4424623;32;20008;-88
2022/04/08 03:58:53;;;;;;;;;;;;;;;13.50;59.94;98168.75;4438502;32;21700;-89
2022/04/08 04:01:18;;;;;;;;;;;;;;;13.46;59.93;98175.94;4424192;32;19984;-89
2022/04/08 04:03:43;;;;;;;;;;;;;;;13.54;59.93;98175.44;4424845;32;20012;-91
2022/04/08 04:06:09;;;;;;;;;;;;;;;13.53;59.93;98160.69;4412085;32;19993;-88
2022/04/08 04:08:35;;;;;;;;;;;;;;;13.47;59.93;98171.56;4425029;32;19973;-89
2022/04/08 04:11:00;;;;;;;;;;;;;;;13.60;59.94;98166.34;4411282;32;25541;-90
2022/04/08 04:13:25;;;;;;;;;;;;;;;13.54;59.93;98169.38;4412241;32;20364;-91
2022/04/08 04:15:51;;;;;;;;;;;;;;;13.41;59.92;98171.97;4412244;32;20027;-88
2022/04/08 04:18:16;;;;;;;;;;;;;;;13.51;59.94;98173.03;4424185;32;19981;-87
2022/04/08 04:20:41;;;;;;;;;;;;;;;13.20;59.92;98182.94;4438435;32;19986;-90
2022/04/08 04:23:06;;;;;;;;;;;;;;;13.25;59.92;98177.44;4411639;32;20000;-88
2022/04/08 04:25:31;;;;;;;;;;;;;;;13.35;59.93;98169.78;4438635;32;20027;-87
2022/04/08 04:27:57;;;;;;;;;;;;;;;13.40;59.93;98192.06;4423501;32;29609;-88
2022/04/08 04:30:24;;;;;;;;;;;;;;;13.33;59.93;98189.97;4439659;32;19986;-88
2022/04/08 04:32:49;;;;;;;;;;;;;;;13.30;59.92;98180.56;4413726;32;20035;-89
2022/04/08 04:35:14;;;;;;;;;;;;;;;13.33;59.92;98190.81;4413577;32;19989;-87
2022/04/08 04:37:39;;;;;;;;;;;;;;;13.43;59.93;98201.47;4426479;32;19993;-89
2022/04/08 04:40:05;;;;;;;;;;;;;;;13.35;59.93;98202.00;4413756;32;19988;-89
2022/04/08 04:42:30;;;;;;;;;;;;;;;13.28;59.92;98198.12;4413634;32;19999;-91
2022/04/08 04:44:56;;;;;;;;;;;;;;;13.28;59.92;98202.53;4413813;32;20029;-91
2022/04/08 04:47:21;;;;;;;;;;;;;;;13.33;59.92;98203.03;4426194;32;19988;-90
2022/04/08 04:49:46;;;;;;;;;;;;;;;13.48;59.93;98204.59;4413608;32;19977;-88
2022/04/08 04:52:11;;;;;;;;;;;;;;;13.60;59.94;98216.00;4439891;32;20419;-89
2022/04/08 04:54:37;;;;;;;;;;;;;;;13.53;59.93;98220.81;4440205;32;19973;-89
2022/04/08 04:57:03;;;;;;;;;;;;;;;13.39;59.93;98237.44;4413412;32;20274;-88
2022/04/08 04:59:28;;;;;;;;;;;;;;;13.43;59.93;98240.66;4425866;32;20023;-89
2022/04/08 05:01:54;;;;;;;;;;;;;;;13.48;59.93;98249.03;4425995;32;20291;-90
2022/04/08 05:04:19;;;;;;;;;;;;;;;13.46;59.93;98243.06;4426263;32;20094;-90
2022/04/08 05:06:44;;;;;;;;;;;;;;;13.59;59.94;98246.53;4413384;32;20017;-89
2022/04/08 05:09:10;;;;;;;;;;;;;;;13.65;59.95;98246.13;4413275;32;19997;-89
2022/04/08 05:11:35;;;;;;;;;;;;;;;13.67;59.94;98257.31;4425908;32;20001;-89
2022/04/08 05:14:00;;;;;;;;;;;;;;;13.68;59.94;98248.50;4413245;32;19989;-88
2022/04/08 05:16:26;;;;;;;;;;;;;;;13.70;59.94;98246.63;4413378;32;20013;-88
2022/04/08 05:18:51;;;;;;;;;;;;;;;13.68;59.94;98258.97;4426213;32;20235;-88
2022/04/08 05:21:16;;;;;;;;;;;;;;;13.64;59.95;98251.44;4425691;32;25452;-89
2022/04/08 05:23:41;;;;;;;;;;;;;;;13.65;59.95;98258.34;4413377;32;20024;-90
2022/04/08 05:26:06;;;;;;;;;;;;;;;13.65;59.95;98269.66;4426047;32;20232;-89
2022/04/08 05:28:32;;;;;;;;;;;;;;;13.64;59.95;98267.12;4413233;32;19995;-89
2022/04/08 05:30:57;;;;;;;;;;;;;;;13.72;59.95;98264.81;4413339;32;20393;-91
2022/04/08 05:33:22;;;;;;;;;;;;;;;13.84;59.95;98269.22;4413370;32;19989;-87
2022/04/08 05:35:48;;;;;;;;;;;;;;;14.07;59.96;98275.50;4413020;32;19996;-88
2022/04/08 05:38:14;;;;;;;;;;;;;;;13.91;59.95;98283.56;4426368;32;20049;-93
2022/04/08 05:40:40;;;;;;;;;;;;;;;13.71;59.94;98291.91;4425064;32;19990;-90
2022/04/08 05:43:05;;;;;;;;;;;;;;;13.85;59.95;98298.84;4440169;32;19996;-89
2022/04/08 05:45:30;;;;;;;;;;;;;;;13.81;59.95;98295.59;4426052;32;19982;-88
2022/04/08 05:47:56;;;;;;;;;;;;;;;13.69;59.94;98289.41;4426021;32;20061;-92
2022/04/08 05:50:21;;;;;;;;;;;;;;;13.69;59.94;98288.56;4425907;32;20378;-89
2022/04/08 05:52:51;;;;;;;;;;;;;;;13.52;59.94;98293.19;4425226;32;19993;-88
2022/04/08 05:55:17;;;;;;;;;;;;;;;13.59;59.94;98313.69;4413575;32;20287;-90
2022/04/08 05:57:42;;;;;;;;;;;;;;;13.63;59.94;98317.75;4424727;32;20003;-89
2022/04/08 06:00:12;;;;;;;;;;;;;;;13.64;59.95;98329.88;4425321;32;20013;-90
2022/04/08 06:02:37;;;;;;;;;;;;;;;13.51;59.94;98327.28;4439425;32;20352;-89
2022/04/08 06:05:03;;;;;;;;;;;;;;;13.75;59.95;98333.47;4413234;32;19985;-92
2022/04/08 06:07:28;;;;;;;;;;;;;;;13.66;59.94;98346.31;4413117;32;20318;-89
2022/04/08 06:09:53;;;;;;;;;;;;;;;13.70;59.94;98353.00;4438977;32;20052;-90
2022/04/08 06:12:19;;;;;;;;;;;;;;;13.51;59.94;98374.31;4426071;32;20333;-89
2022/04/08 06:14:44;;;;;;;;;;;;;;;13.62;59.94;98379.66;4425945;32;19981;-89
2022/04/08 06:17:09;;;;;;;;;;;;;;;13.73;59.95;98385.03;4413016;32;20034;-93
2022/04/08 06:19:34;;;;;;;;;;;;;;;13.72;59.95;98387.72;4425907;32;19989;-90
2022/04/08 06:22:00;;;;;;;;;;;;;;;13.93;59.96;98378.44;4425864;32;19996;-89
2022/04/08 06:24:25;;;;;;;;;;;;;;;14.16;59.97;98373.44;4425883;32;20351;-89
2022/04/08 06:26:50;;;;;;;;;;;;;;;14.12;59.97;98365.81;4425652;32;20028;-89
2022/04/08 06:29:15;;;;;;;;;;;;;;;14.18;59.97;98371.56;4425535;32;20460;-89
2022/04/08 06:31:43;;;;;;;;;;;;;;;14.21;59.98;98381.84;4412471;32;19981;-90
2022/04/08 06:34:08;;;;;;;;;;;;;;;14.16;59.97;98382.12;4425947;32;20688;-89
2022/04/08 06:36:33;;;;;;;;;;;;;;;14.25;59.98;98378.91;4439632;32;19970;-90
2022/04/08 06:38:59;;;;;;;;;;;;;;;14.37;59.98;98375.41;4425741;32;19985;-89
2022/04/08 06:41:24;;;;;;;;;;;;;;;14.32;59.99;98374.06;4425720;32;20028;-90
2022/04/08 06:43:50;;;;;;;;;;;;;;;14.41;59.99;98376.03;4425817;32;19985;-88
2022/04/08 06:46:15;;;;;;;;;;;;;;;14.47;59.99;98374.84;4425887;32;19969;-90
2022/04/08 06:48:40;;;;;;;;;;;;;;;14.88;60.01;98377.97;4425780;32;19989;-90
2022/04/08 06:51:05;;;;;;;;;;;;;;;14.97;60.01;98372.09;4439788;32;20582;-90
2022/04/08 06:53:32;;;;;;;;;;;;;;;15.17;60.03;98383.75;4437933;32;20013;-89
2022/04/08 06:55:58;;;;;;;;;;;;;;;15.31;60.05;98378.31;4425871;32;19985;-90
2022/04/08 06:58:26;;;;;;;;;;;;;;;15.38;60.04;98383.97;4425728;32;19985;-89
2022/04/08 07:00:51;;;;;;;;;;;;;;;15.31;60.04;98380.94;4413093;32;19989;-89
2022/04/08 07:03:17;;;;;;;;;;;;;;;15.44;60.04;98393.19;4425770;32;20026;-90
2022/04/08 07:05:42;;;;;;;;;;;;;;;15.43;60.04;98379.22;4439726;32;20209;-90
2022/04/08 07:08:07;;;;;;;;;;;;;;;15.47;60.04;98370.19;4425635;32;19996;-89
2022/04/08 07:10:33;;;;;;;;;;;;;;;15.39;60.03;98375.16;4425524;32;20012;-91
2022/04/08 07:12:59;;;;;;;;;;;;;;;15.46;60.03;98368.50;4425261;32;19981;-90
2022/04/08 07:15:25;;;;;;;;;;;;;;;15.62;60.06;98373.50;4425508;32;19982;-91
2022/04/08 07:17:50;;;;;;;;;;;;;;;15.66;60.05;98385.44;4438079;32;19997;-90
2022/04/08 07:20:15;;;;;;;;;;;;;;;15.67;60.05;98396.75;4425043;32;20240;-90
2022/04/08 07:22:44;;;;;;;;;;;;;;;15.67;60.06;98400.22;4412528;32;19978;-89
2022/04/08 07:25:09;;;;;;;;;;;;;;;15.62;60.06;98395.31;4425437;32;19984;-90
2022/04/08 07:27:50;;;;;;;;;;;;;;;15.99;60.07;98387.31;4439106;32;19988;-90
2022/04/08 07:30:17;;;;;;;;;;;;;;;16.16;60.08;98386.03;4425229;32;20007;-91
2022/04/08 07:32:42;;;;;;;;;;;;;;;16.38;60.10;98386.06;4412630;32;20334;-91
2022/04/08 07:35:08;;;;;;;;;;;;;;;16.20;60.09;98398.78;4424685;32;20012;-89
2022/04/08 07:37:33;;;;;;;;;;;;;;;16.25;60.09;98399.28;4412291;32;20005;-91
2022/04/08 07:39:58;;;;;;;;;;;;;;;16.16;60.08;98393.91;4425116;32;20266;-90
2022/04/08 07:42:24;;;;;;;;;;;;;;;15.95;60.07;98412.09;4425031;32;19994;-89
2022/04/08 07:44:49;;;;;;;;;;;;;;;15.96;60.07;98409.38;4425049;32;19982;-89
2022/04/08 07:47:15;;;;;;;;;;;;;;;16.13;60.08;98415.13;4437171;32;19993;-90
2022/04/08 07:49:42;;;;;;;;;;;;;;;16.10;60.08;98416.22;4439279;32;19985;-90
2022/04/08 07:52:07;;;;;;;;;;;;;;;15.98;60.07;98401.37;4424277;32;19982;-90
2022/04/08 07:54:32;;;;;;;;;;;;;;;16.11;60.08;98410.00;4412043;32;19973;-89
2022/04/08 07:56:59;;;;;;;;;;;;;;;16.06;60.08;98401.63;4424982;32;19998;-91
2022/04/08 07:59:24;;;;;;;;;;;;;;;15.77;60.05;98377.59;4425010;32;20042;-91
2022/04/08 08:01:49;;;;;;;;;;;;;;;15.74;60.06;98393.56;4424136;32;21657;-90
2022/04/08 08:04:15;;;;;;;;;;;;;;;15.63;60.06;98385.66;4425642;32;20007;-91
2022/04/08 08:06:43;;;;;;;;;;;;;;;15.55;60.06;98393.22;4440706;32;19996;-90
2022/04/08 08:09:08;;;;;;;;;;;;;;;15.49;60.05;98394.50;4426875;32;19998;-91
2022/04/08 08:11:33;;;;;;;;;;;;;;;15.65;60.06;98400.34;4426894;32;20027;-91
2022/04/08 08:13:59;;;;;;;;;;;;;;;15.53;60.05;98390.69;4426893;32;19970;-91
2022/04/08 08:16:24;;;;;;;;;;;;;;;15.47;60.04;98406.06;4426944;32;19989;-93
2022/04/08 08:18:50;;;;;;;;;;;;;;;15.35;60.04;98418.25;4427032;32;20011;-93
2022/04/08 08:21:15;;;;;;;;;;;;;;;15.23;60.04;98419.16;4426972;32;19996;-92
2022/04/08 08:23:40;;;;;;;;;;;;;;;15.14;60.03;98441.66;4414134;32;20321;-93
2022/04/08 08:26:06;;;;;;;;;;;;;;;15.26;60.03;98448.63;4426726;32;20008;-92
2022/04/08 08:28:31;;;;;;;;;;;;;;;15.56;60.06;98436.84;4426702;32;20315;-91
2022/04/08 08:30:56;;;;;;;;;;;;;;;15.79;60.07;98454.37;4426819;32;20048;-91
2022/04/08 08:33:21;;;;;;;;;;;;;;;15.63;60.06;98457.31;4426894;32;20000;-90
2022/04/08 08:35:47;;;;;;;;;;;;;;;15.58;60.05;98477.78;4426706;32;19989;-91
2022/04/08 08:38:12;;;;;;;;;;;;;;;15.55;60.06;98471.91;4414177;32;20389;-92
2022/04/08 08:40:38;;;;;;;;;;;;;;;15.61;60.06;98474.97;4439490;32;20003;-91
2022/04/08 08:43:03;;;;;;;;;;;;;;;15.44;60.05;98485.78;4426714;32;19991;-93
2022/04/08 08:45:32;;;;;;;;;;;;;;;15.65;60.06;98479.03;4426824;32;19981;-90
2022/04/08 08:47:58;;;;;;;;;;;;;;;15.76;60.06;98485.25;4426955;32;20004;-92
2022/04/08 08:50:24;;;;;;;;;;;;;;;16.03;60.08;98483.22;4413993;32;20380;-92
2022/04/08 08:52:49;;;;;;;;;;;;;;;15.94;60.08;98483.91;4426550;32;20389;-92
2022/04/08 08:55:15;;;;;;;;;;;;;;;16.01;60.08;98492.16;4413600;32;20023;-90
2022/04/08 08:57:42;;;;;;;;;;;;;;;16.09;60.09;98492.41;4413705;32;20021;-91
2022/04/08 09:00:12;;;;;;;;;;;;;;;16.27;60.09;98493.69;4440822;32;20361;-90
2022/04/08 09:02:37;;;;;;;;;;;;;;;16.12;60.08;98507.97;4426712;32;19973;-91
2022/04/08 09:05:10;;;;;;;;;;;;;;;16.19;60.09;98509.19;4426589;32;20266;-91
2022/04/08 09:07:35;;;;;;;;;;;;;;;16.15;60.10;98489.38;4413755;32;20001;-92
2022/04/08 09:10:00;;;;;;;;;;;;;;;16.33;60.10;98495.03;4426591;32;19988;-91
2022/04/08 09:12:26;;;;;;;;;;;;;;;16.51;60.10;98499.69;4413675;32;19992;-91
2022/04/08 09:14:58;;;;;;;;;;;;;;;16.49;60.11;98485.00;4413829;32;20096;-94
2022/04/08 09:17:25;;;;;;;;;;;;;;;16.76;60.11;98500.47;4426731;32;20028;-92
2022/04/08 09:19:52;;;;;;;;;;;;;;;17.04;60.13;98491.31;4413857;32;20391;-92
2022/04/08 09:22:17;;;;;;;;;;;;;;;16.91;60.13;98490.59;4426356;32;19974;-91
2022/04/08 09:24:42;;;;;;;;;;;;;;;17.10;60.14;98496.09;4426412;32;19978;-90
2022/04/08 09:27:07;;;;;;;;;;;;;;;17.24;60.15;98519.47;4440332;32;20242;-90
2022/04/08 09:29:33;;;;;;;;;;;;;;;17.29;60.15;98522.63;4426370;32;19974;-91
2022/04/08 09:31:58;;;;;;;;;;;;;;;17.33;60.15;98533.72;4426111;32;19966;-90
2022/04/08 09:34:23;;;;;;;;;;;;;;;17.49;60.16;98531.53;4440466;32;19989;-91
2022/04/08 09:36:49;;;;;;;;;;;;;;;17.61;60.16;98537.63;4426329;32;20337;-91
2022/04/08 09:39:14;;;;;;;;;;;;;;;17.98;60.18;98530.22;4426217;32;19981;-92
2022/04/08 09:41:40;;;;;;;;;;;;;;;18.21;60.20;98530.97;4426403;32;20000;-91
2022/04/08 09:44:09;;;;;;;;;;;;;;;18.10;60.19;98532.72;4413535;32;19985;-91
2022/04/08 09:46:35;;;;;;;;;;;;;;;18.27;60.20;98531.34;4413770;32;20001;-91
2022/04/08 09:49:00;;;;;;;;;;;;;;;18.28;60.20;98527.72;4413631;32;20027;-93
2022/04/08 09:51:25;;;;;;;;;;;;;;;18.26;60.20;98528.81;4426160;32;19978;-92
2022/04/08 09:53:54;;;;;;;;;;;;;;;18.60;60.21;98532.94;4426258;32;19981;-91
2022/04/08 09:56:20;;;;;;;;;;;;;;;18.74;60.23;98528.34;4413427;32;20007;-93
2022/04/08 09:58:47;;;;;;;;;;;;;;;18.77;60.23;98538.63;4413655;32;19978;-92
2022/04/08 10:01:12;;;;;;;;;;;;;;;18.78;60.23;98517.41;4413356;32;19985;-91
2022/04/08 10:03:37;;;;;;;;;;;;;;;19.05;60.24;98534.47;4426155;32;20252;-92
2022/04/08 10:06:03;;;;;;;;;;;;;;;18.79;60.23;98532.25;4425992;32;19989;-91
2022/04/08 10:08:30;;;;;;;;;;;;;;;18.69;60.23;98533.97;4425787;32;19973;-92
2022/04/08 10:10:58;;;;;;;;;;;;;;;18.52;60.21;98524.84;4426586;32;19970;-91
2022/04/08 10:13:45;;;;;;;;;;;;;;;18.66;60.22;98540.34;4413435;32;20013;-92
2022/04/08 10:16:14;;;;;;;;;;;;;;;18.65;60.22;98537.84;4439136;32;20087;-94
2022/04/08 10:18:42;;;;;;;;;;;;;;;18.79;60.23;98534.88;4438930;32;20732;-93
2022/04/08 10:21:10;;;;;;;;;;;;;;;18.98;60.25;98535.00;4426142;32;19969;-94
2022/04/08 10:23:36;;;;;;;;;;;;;;;19.21;60.25;98535.66;4426464;32;20034;-90
2022/04/08 10:26:04;;;;;;;;;;;;;;;19.47;60.27;98533.38;4425900;32;20134;-91
2022/04/08 10:28:35;;;;;;;;;;;;;;;19.62;60.28;98544.41;4439727;32;19977;-92
2022/04/08 10:31:01;;;;;;;;;;;;;;;19.43;60.26;98542.53;4413173;32;20015;-91
2022/04/08 10:33:28;;;;;;;;;;;;;;;19.46;60.27;98554.63;4425836;32;20406;-91
2022/04/08 10:35:54;;;;;;;;;;;;;;;19.23;60.26;98543.44;4425870;32;20025;-91
2022/04/08 10:38:19;;;;;;;;;;;;;;;19.16;60.26;98543.09;4425876;32;19974;-91
2022/04/08 10:40:51;;;;;;;;;;;;;;;19.14;60.25;98554.75;4425759;32;20330;-92
2022/04/08 10:43:17;;;;;;;;;;;;;;;19.26;60.26;98540.53;4412933;32;19985;-93
2022/04/08 10:45:51;;;;;;;;;;;;;;;19.01;60.25;98542.63;4425935;32;20024;-91
2022/04/08 10:48:18;;;;;;;;;;;;;;;18.90;60.25;98550.63;4439804;32;20315;-91
2022/04/08 10:50:43;;;;;;;;;;;;;;;19.30;60.27;98534.84;4425821;32;19982;-92
2022/04/08 10:53:10;;;;;;;;;;;;;;;19.43;60.26;98536.44;4425699;32;20008;-91
2022/04/08 10:55:48;;;;;;;;;;;;;;;19.25;60.26;98534.41;4425821;32;20001;-92
2022/04/08 10:58:15;;;;;;;;;;;;;;;19.00;60.25;98532.22;4412950;32;20001;-93
2022/04/08 11:00:40;;;;;;;;;;;;;;;19.08;60.26;98535.03;4426071;32;20330;-92
2022/04/08 11:03:06;;;;;;;;;;;;;;;19.08;60.25;98529.75;4425920;32;20021;-92
2022/04/08 11:05:35;;;;;;;;;;;;;;;19.21;60.25;98533.03;4425781;32;20009;-92
2022/04/08 11:08:00;;;;;;;;;;;;;;;19.60;60.27;98547.19;4412859;32;19981;-92
2022/04/08 11:10:25;;;;;;;;;;;;;;;19.86;60.29;98534.31;4425879;32;20352;-92
2022/04/08 11:12:51;;;;;;;;;;;;;;;19.91;60.30;98534.75;4425719;32;19996;-93
2022/04/08 11:15:17;;;;;;;;;;;;;;;20.09;60.31;98539.31;4412892;32;20341;-92
2022/04/08 11:17:45;;;;;;;;;;;;;;;19.81;60.29;98528.59;4413148;32;19985;-94
2022/04/08 11:20:11;;;;;;;;;;;;;;;19.91;60.29;98544.47;4413273;32;19977;-93
2022/04/08 11:22:42;;;;;;;;;;;;;;;19.78;60.29;98552.66;4412709;32;20064;-93
2022/04/08 11:25:08;;;;;;;;;;;;;;;19.61;60.28;98553.28;4412689;32;19989;-91
2022/04/08 11:27:34;;;;;;;;;;;;;;;19.39;60.27;98556.94;4412801;32;20004;-91
2022/04/08 11:29:59;;;;;;;;;;;;;;;19.38;60.27;98557.91;4425432;32;19996;-92
2022/04/08 11:32:31;;;;;;;;;;;;;;;19.29;60.26;98559.56;4412574;32;20254;-93
2022/04/08 11:34:56;;;;;;;;;;;;;;;19.39;60.27;98559.59;4425501;32;19993;-92
2022/04/08 11:37:25;;;;;;;;;;;;;;;19.43;60.27;98555.72;4424687;32;19996;-93
2022/04/08 11:39:57;;;;;;;;;;;;;;;19.32;60.27;98555.81;4413126;32;20095;-92
2022/04/08 11:42:22;;;;;;;;;;;;;;;19.33;60.27;98553.03;4413799;32;20653;-92
2022/04/08 11:44:48;;;;;;;;;;;;;;;19.59;60.29;98550.78;4426606;32;19993;-91
2022/04/08 11:47:17;;;;;;;;;;;;;;;19.96;60.30;98552.81;4426150;32;20290;-92
2022/04/08 11:49:42;;;;;;;;;;;;;;;20.16;60.31;98543.94;4426930;32;19977;-92
2022/04/08 11:52:07;;;;;;;;;;;;;;;20.03;60.31;98550.44;4440366;32;20015;-93
2022/04/08 11:54:36;;;;;;;;;;;;;;;20.29;60.33;98538.34;4426538;32;19992;-93
2022/04/08 11:57:01;;;;;;;;;;;;;;;20.41;60.32;98544.38;4439306;32;19995;-92
2022/04/08 11:59:27;;;;;;;;;;;;;;;20.44;60.32;98529.06;4426528;32;20366;-92
2022/04/08 12:01:56;;;;;;;;;;;;;;;20.29;60.31;98530.44;4425995;32;20001;-91
2022/04/08 12:04:22;;;;;;;;;;;;;;;20.51;60.33;98534.62;4413433;32;20019;-92
2022/04/08 12:06:47;;;;;;;;;;;;;;;20.76;60.34;98535.81;4426153;32;20428;-93
2022/04/08 12:09:13;;;;;;;;;;;;;;;21.06;60.36;98527.69;4413484;32;20011;-93
2022/04/08 12:11:39;;;;;;;;;;;;;;;21.10;60.36;98525.56;4413154;32;19997;-92
2022/04/08 12:14:05;;;;;;;;;;;;;;;21.32;60.38;98525.22;4413306;32;20357;-93
2022/04/08 12:16:31;;;;;;;;;;;;;;;21.32;60.37;98505.88;4413427;32;19977;-93
2022/04/08 12:18:56;;;;;;;;;;;;;;;21.29;60.36;98492.91;4426059;32;19991;-92
2022/04/08 12:21:22;;;;;;;;;;;;;;;21.48;60.38;98494.63;4425981;32;20035;-92
2022/04/08 12:23:47;;;;;;;;;;;;;;;21.83;60.40;98496.50;4413332;32;20318;-91
2022/04/08 12:26:14;;;;;;;;;;;;;;;22.03;60.41;98482.13;4425833;32;19978;-91
2022/04/08 12:28:39;;;;;;;;;;;;;;;22.22;60.42;98483.78;4426176;32;20008;-91
2022/04/08 12:31:14;;;;;;;;;;;;;;;22.21;60.42;98472.34;4425902;32;19989;-91
2022/04/08 12:33:39;;;;;;;;;;;;;;;22.07;60.41;98480.03;4426102;32;20013;-90
2022/04/08 12:36:06;;;;;;;;;;;;;;;22.15;60.41;98477.44;4401125;32;825378;-90
2022/04/08 12:38:31;;;;;;;;;;;;;;;22.26;60.42;98471.91;4426772;32;20348;-90
2022/04/08 12:40:57;;;;;;;;;;;;;;;22.38;60.42;98465.34;4426600;32;20017;-90